sensor_id;sensor_type;location;lat;lon;timestamp;temperature;humidity
43627;DHT22;29217;52.586;13.442;2022-11-13T00:00:56;9.00;99.90
43627;DHT22;29217;52.586;13.442;2022-11-13T00:03:22;9.00;99.90
43627;DHT22;29217;52.586;13.442;2022-11-13T00:05:56;9.00;99.90
43627;DHT22;29217;52.586;13.442;2022-11-13T00:08:22;9.00;99.90
43627;DHT22;29217;52.586;13.442;2022-11-13T00:10:47;9.00;99.90
43627;DHT22;29217;52.586;13.442;2022-11-13T00:13:13;9.00;99.90
43627;DHT22;29217;52.586;13.442;2022-11-13T00:15:39;9.00;99.90
43627;DHT22;29217;52.586;13.442;2022-11-13T00:18:04;9.00;99.90
43627;DHT22;29217;52.586;13.442;2022-11-13T00:20:30;9.00;99.90
43627;DHT22;29217;52.586;13.442;2022-11-13T00:22:55;9.00;99.90
43627;DHT22;29217;52.586;13.442;2022-11-13T00:25:21;9.00;99.90
43627;DHT22;29217;52.586;13.442;2022-11-13T00:27:47;9.00;99.90
43627;DHT22;29217;52.586;13.442;2022-11-13T00:30:12;9.00;99.90
43627;DHT22;29217;52.586;13.442;2022-11-13T00:32:38;9.00;99.90
43627;DHT22;29217;52.586;13.442;2022-11-13T00:35:05;9.00;99.90
43627;DHT22;29217;52.586;13.442;2022-11-13T00:37:30;9.00;99.90
43627;DHT22;29217;52.586;13.442;2022-11-13T00:39:56;9.10;99.90
43627;DHT22;29217;52.586;13.442;2022-11-13T00:42:21;9.10;99.90
43627;DHT22;29217;52.586;13.442;2022-11-13T00:44:47;9.10;99.90
43627;DHT22;29217;52.586;13.442;2022-11-13T00:47:13;9.10;99.90
43627;DHT22;29217;52.586;13.442;2022-11-13T00:49:38;9.10;99.90
43627;DHT22;29217;52.586;13.442;2022-11-13T00:52:04;9.10;99.90
43627;DHT22;29217;52.586;13.442;2022-11-13T00:54:29;9.10;99.90
43627;DHT22;29217;52.586;13.442;2022-11-13T00:56:55;9.10;99.90
43627;DHT22;29217;52.586;13.442;2022-11-13T00:59:21;9.20;99.90
43627;DHT22;29217;52.586;13.442;2022-11-13T01:01:46;9.10;99.90
43627;DHT22;29217;52.586;13.442;2022-11-13T01:04:12;9.20;99.90
43627;DHT22;29217;52.586;13.442;2022-11-13T01:06:37;9.20;99.90
43627;DHT22;29217;52.586;13.442;2022-11-13T01:09:03;9.20;99.90
43627;DHT22;29217;52.586;13.442;2022-11-13T01:11:29;9.10;99.90
43627;DHT22;29217;52.586;13.442;2022-11-13T01:13:55;9.10;99.90
43627;DHT22;29217;52.586;13.442;2022-11-13T01:16:24;9.20;99.90
43627;DHT22;29217;52.586;13.442;2022-11-13T01:18:50;9.10;99.90
43627;DHT22;29217;52.586;13.442;2022-11-13T01:21:20;9.10;99.90
43627;DHT22;29217;52.586;13.442;2022-11-13T01:23:46;9.20;99.90
43627;DHT22;29217;52.586;13.442;2022-11-13T01:28:40;9.20;99.90
43627;DHT22;29217;52.586;13.442;2022-11-13T01:31:11;9.20;99.90
43627;DHT22;29217;52.586;13.442;2022-11-13T01:33:37;9.10;99.90
43627;DHT22;29217;52.586;13.442;2022-11-13T01:36:09;9.20;99.90
43627;DHT22;29217;52.586;13.442;2022-11-13T01:38:36;9.10;99.90
43627;DHT22;29217;52.586;13.442;2022-11-13T01:41:02;9.20;99.90
43627;DHT22;29217;52.586;13.442;2022-11-13T01:43:32;9.20;99.90
43627;DHT22;29217;52.586;13.442;2022-11-13T01:48:27;9.20;99.90
43627;DHT22;29217;52.586;13.442;2022-11-13T01:50:56;9.20;99.90
43627;DHT22;29217;52.586;13.442;2022-11-13T01:53:22;9.20;99.90
43627;DHT22;29217;52.586;13.442;2022-11-13T01:55:48;9.20;99.90
43627;DHT22;29217;52.586;13.442;2022-11-13T01:58:14;9.20;99.90
43627;DHT22;29217;52.586;13.442;2022-11-13T02:00:40;9.20;99.90
43627;DHT22;29217;52.586;13.442;2022-11-13T02:03:06;9.10;99.90
43627;DHT22;29217;52.586;13.442;2022-11-13T02:05:32;9.20;99.90
43627;DHT22;29217;52.586;13.442;2022-11-13T02:07:57;9.20;99.90
43627;DHT22;29217;52.586;13.442;2022-11-13T02:10:23;9.20;99.90
43627;DHT22;29217;52.586;13.442;2022-11-13T02:12:50;9.20;99.90
43627;DHT22;29217;52.586;13.442;2022-11-13T02:15:18;9.20;99.90
43627;DHT22;29217;52.586;13.442;2022-11-13T02:17:49;9.20;99.90
43627;DHT22;29217;52.586;13.442;2022-11-13T02:20:20;9.20;99.90
43627;DHT22;29217;52.586;13.442;2022-11-13T02:23:01;9.20;99.90
43627;DHT22;29217;52.586;13.442;2022-11-13T02:25:32;9.20;99.90
43627;DHT22;29217;52.586;13.442;2022-11-13T02:27:59;9.20;99.90
43627;DHT22;29217;52.586;13.442;2022-11-13T02:30:28;9.20;99.90
43627;DHT22;29217;52.586;13.442;2022-11-13T02:32:55;9.20;99.90
43627;DHT22;29217;52.586;13.442;2022-11-13T02:35:30;9.20;99.90
43627;DHT22;29217;52.586;13.442;2022-11-13T02:37:59;9.30;99.90
43627;DHT22;29217;52.586;13.442;2022-11-13T02:40:26;9.30;99.90
43627;DHT22;29217;52.586;13.442;2022-11-13T02:42:52;9.30;99.90
43627;DHT22;29217;52.586;13.442;2022-11-13T02:45:18;9.40;99.90
43627;DHT22;29217;52.586;13.442;2022-11-13T02:47:43;9.40;99.90
43627;DHT22;29217;52.586;13.442;2022-11-13T02:50:10;9.40;99.90
43627;DHT22;29217;52.586;13.442;2022-11-13T02:52:36;9.50;99.90
43627;DHT22;29217;52.586;13.442;2022-11-13T02:55:02;9.50;99.90
43627;DHT22;29217;52.586;13.442;2022-11-13T02:57:28;9.50;99.90
43627;DHT22;29217;52.586;13.442;2022-11-13T02:59:54;9.50;99.90
43627;DHT22;29217;52.586;13.442;2022-11-13T03:02:19;9.50;99.90
43627;DHT22;29217;52.586;13.442;2022-11-13T03:04:45;9.50;99.90
43627;DHT22;29217;52.586;13.442;2022-11-13T03:07:11;9.60;99.90
43627;DHT22;29217;52.586;13.442;2022-11-13T03:09:38;9.60;99.90
43627;DHT22;29217;52.586;13.442;2022-11-13T03:12:04;9.60;99.90
43627;DHT22;29217;52.586;13.442;2022-11-13T03:14:30;9.60;99.90
43627;DHT22;29217;52.586;13.442;2022-11-13T03:16:56;9.60;99.90
43627;DHT22;29217;52.586;13.442;2022-11-13T03:19:21;9.60;99.90
43627;DHT22;29217;52.586;13.442;2022-11-13T03:21:47;9.70;99.90
43627;DHT22;29217;52.586;13.442;2022-11-13T03:24:12;9.60;99.90
43627;DHT22;29217;52.586;13.442;2022-11-13T03:26:38;9.70;99.90
43627;DHT22;29217;52.586;13.442;2022-11-13T03:29:03;9.70;99.90
43627;DHT22;29217;52.586;13.442;2022-11-13T03:31:29;9.70;99.90
43627;DHT22;29217;52.586;13.442;2022-11-13T03:33:54;9.60;99.90
43627;DHT22;29217;52.586;13.442;2022-11-13T03:36:20;9.70;99.90
43627;DHT22;29217;52.586;13.442;2022-11-13T03:38:45;9.70;99.90
43627;DHT22;29217;52.586;13.442;2022-11-13T03:41:12;9.70;99.90
43627;DHT22;29217;52.586;13.442;2022-11-13T03:43:41;9.80;99.90
43627;DHT22;29217;52.586;13.442;2022-11-13T03:46:07;9.70;99.90
43627;DHT22;29217;52.586;13.442;2022-11-13T03:48:32;9.80;99.90
43627;DHT22;29217;52.586;13.442;2022-11-13T03:50:58;9.80;99.90
43627;DHT22;29217;52.586;13.442;2022-11-13T03:53:24;9.80;99.90
43627;DHT22;29217;52.586;13.442;2022-11-13T03:55:50;9.80;99.90
43627;DHT22;29217;52.586;13.442;2022-11-13T03:58:16;9.80;99.90
43627;DHT22;29217;52.586;13.442;2022-11-13T04:00:43;9.70;99.90
43627;DHT22;29217;52.586;13.442;2022-11-13T04:03:09;9.80;99.90
43627;DHT22;29217;52.586;13.442;2022-11-13T04:05:34;9.80;99.90
43627;DHT22;29217;52.586;13.442;2022-11-13T04:08:00;9.80;99.90
43627;DHT22;29217;52.586;13.442;2022-11-13T04:10:26;9.80;99.90
43627;DHT22;29217;52.586;13.442;2022-11-13T04:12:52;9.80;99.90
43627;DHT22;29217;52.586;13.442;2022-11-13T04:15:18;9.80;99.90
43627;DHT22;29217;52.586;13.442;2022-11-13T04:17:43;9.80;99.90
43627;DHT22;29217;52.586;13.442;2022-11-13T04:20:09;9.80;99.90
43627;DHT22;29217;52.586;13.442;2022-11-13T04:22:35;9.80;99.90
43627;DHT22;29217;52.586;13.442;2022-11-13T04:25:00;9.80;99.90
43627;DHT22;29217;52.586;13.442;2022-11-13T04:27:26;9.80;99.90
43627;DHT22;29217;52.586;13.442;2022-11-13T04:29:52;9.80;99.90
43627;DHT22;29217;52.586;13.442;2022-11-13T04:32:17;9.80;99.90
43627;DHT22;29217;52.586;13.442;2022-11-13T04:34:43;9.80;99.90
43627;DHT22;29217;52.586;13.442;2022-11-13T04:37:08;9.80;99.90
43627;DHT22;29217;52.586;13.442;2022-11-13T04:39:34;9.80;99.90
43627;DHT22;29217;52.586;13.442;2022-11-13T04:41:59;9.80;99.90
43627;DHT22;29217;52.586;13.442;2022-11-13T04:44:44;9.80;99.90
43627;DHT22;29217;52.586;13.442;2022-11-13T04:47:09;9.80;99.90
43627;DHT22;29217;52.586;13.442;2022-11-13T04:49:35;9.90;99.90
43627;DHT22;29217;52.586;13.442;2022-11-13T04:52:00;9.90;99.90
43627;DHT22;29217;52.586;13.442;2022-11-13T04:54:26;9.80;99.90
43627;DHT22;29217;52.586;13.442;2022-11-13T04:56:52;9.80;99.90
43627;DHT22;29217;52.586;13.442;2022-11-13T04:59:17;9.80;99.90
43627;DHT22;29217;52.586;13.442;2022-11-13T05:01:43;9.90;99.90
43627;DHT22;29217;52.586;13.442;2022-11-13T05:04:12;9.90;99.90
43627;DHT22;29217;52.586;13.442;2022-11-13T05:06:39;9.80;99.90
43627;DHT22;29217;52.586;13.442;2022-11-13T05:09:05;9.80;99.90
43627;DHT22;29217;52.586;13.442;2022-11-13T05:11:31;9.80;99.90
43627;DHT22;29217;52.586;13.442;2022-11-13T05:13:56;9.80;99.90
43627;DHT22;29217;52.586;13.442;2022-11-13T05:16:22;9.80;99.90
43627;DHT22;29217;52.586;13.442;2022-11-13T05:18:47;9.80;99.90
43627;DHT22;29217;52.586;13.442;2022-11-13T05:21:13;9.80;99.90
43627;DHT22;29217;52.586;13.442;2022-11-13T05:23:39;9.80;99.90
43627;DHT22;29217;52.586;13.442;2022-11-13T05:26:07;9.80;99.90
43627;DHT22;29217;52.586;13.442;2022-11-13T05:28:33;9.80;99.90
43627;DHT22;29217;52.586;13.442;2022-11-13T05:31:11;9.90;99.90
43627;DHT22;29217;52.586;13.442;2022-11-13T05:33:38;9.80;99.90
43627;DHT22;29217;52.586;13.442;2022-11-13T05:36:15;9.90;99.90
43627;DHT22;29217;52.586;13.442;2022-11-13T05:38:41;9.80;99.90
43627;DHT22;29217;52.586;13.442;2022-11-13T05:41:10;9.90;99.90
43627;DHT22;29217;52.586;13.442;2022-11-13T05:43:37;9.80;99.90
43627;DHT22;29217;52.586;13.442;2022-11-13T05:46:08;9.80;99.90
43627;DHT22;29217;52.586;13.442;2022-11-13T05:48:35;9.80;99.90
43627;DHT22;29217;52.586;13.442;2022-11-13T05:51:03;9.90;99.90
43627;DHT22;29217;52.586;13.442;2022-11-13T05:53:29;9.90;99.90
43627;DHT22;29217;52.586;13.442;2022-11-13T05:55:59;9.90;99.90
43627;DHT22;29217;52.586;13.442;2022-11-13T05:58:25;9.90;99.90
43627;DHT22;29217;52.586;13.442;2022-11-13T06:00:51;9.90;99.90
43627;DHT22;29217;52.586;13.442;2022-11-13T06:03:16;9.90;99.90
43627;DHT22;29217;52.586;13.442;2022-11-13T06:05:42;9.90;99.90
43627;DHT22;29217;52.586;13.442;2022-11-13T06:08:08;9.90;99.90
43627;DHT22;29217;52.586;13.442;2022-11-13T06:10:33;9.90;99.90
43627;DHT22;29217;52.586;13.442;2022-11-13T06:12:59;9.90;99.90
43627;DHT22;29217;52.586;13.442;2022-11-13T06:15:24;9.90;99.90
43627;DHT22;29217;52.586;13.442;2022-11-13T06:17:50;9.90;99.90
43627;DHT22;29217;52.586;13.442;2022-11-13T06:20:15;10.00;99.90
43627;DHT22;29217;52.586;13.442;2022-11-13T06:22:41;10.00;99.90
43627;DHT22;29217;52.586;13.442;2022-11-13T06:25:07;10.00;99.90
43627;DHT22;29217;52.586;13.442;2022-11-13T06:27:32;10.00;99.90
43627;DHT22;29217;52.586;13.442;2022-11-13T06:29:58;9.90;99.90
43627;DHT22;29217;52.586;13.442;2022-11-13T06:32:23;9.90;99.90
43627;DHT22;29217;52.586;13.442;2022-11-13T06:34:49;10.00;99.90
43627;DHT22;29217;52.586;13.442;2022-11-13T06:37:14;10.00;99.90
43627;DHT22;29217;52.586;13.442;2022-11-13T06:39:40;10.00;99.90
43627;DHT22;29217;52.586;13.442;2022-11-13T06:42:05;10.00;99.90
43627;DHT22;29217;52.586;13.442;2022-11-13T06:44:31;10.00;99.90
43627;DHT22;29217;52.586;13.442;2022-11-13T06:46:56;10.00;99.90
43627;DHT22;29217;52.586;13.442;2022-11-13T06:49:22;10.00;99.90
43627;DHT22;29217;52.586;13.442;2022-11-13T06:51:47;10.00;99.90
43627;DHT22;29217;52.586;13.442;2022-11-13T06:54:13;10.10;99.90
43627;DHT22;29217;52.586;13.442;2022-11-13T06:56:39;10.00;99.90
43627;DHT22;29217;52.586;13.442;2022-11-13T06:59:10;10.00;99.90
43627;DHT22;29217;52.586;13.442;2022-11-13T07:01:36;10.00;99.90
43627;DHT22;29217;52.586;13.442;2022-11-13T07:04:01;10.00;99.90
43627;DHT22;29217;52.586;13.442;2022-11-13T07:06:29;10.00;99.90
43627;DHT22;29217;52.586;13.442;2022-11-13T07:08:54;10.00;99.90
43627;DHT22;29217;52.586;13.442;2022-11-13T07:11:21;10.00;99.90
43627;DHT22;29217;52.586;13.442;2022-11-13T07:13:48;10.00;99.90
43627;DHT22;29217;52.586;13.442;2022-11-13T07:16:14;10.00;99.90
43627;DHT22;29217;52.586;13.442;2022-11-13T07:18:40;10.00;99.90
43627;DHT22;29217;52.586;13.442;2022-11-13T07:21:08;10.00;99.90
43627;DHT22;29217;52.586;13.442;2022-11-13T07:23:35;10.10;99.90
43627;DHT22;29217;52.586;13.442;2022-11-13T07:26:04;10.10;99.90
43627;DHT22;29217;52.586;13.442;2022-11-13T07:28:30;10.00;99.90
43627;DHT22;29217;52.586;13.442;2022-11-13T07:30:59;10.00;99.90
43627;DHT22;29217;52.586;13.442;2022-11-13T07:33:24;10.10;99.90
43627;DHT22;29217;52.586;13.442;2022-11-13T07:35:55;10.10;99.90
43627;DHT22;29217;52.586;13.442;2022-11-13T07:38:21;10.10;99.90
43627;DHT22;29217;52.586;13.442;2022-11-13T07:40:47;10.10;99.90
43627;DHT22;29217;52.586;13.442;2022-11-13T07:43:13;10.10;99.90
43627;DHT22;29217;52.586;13.442;2022-11-13T07:45:38;10.10;99.90
43627;DHT22;29217;52.586;13.442;2022-11-13T07:48:04;10.10;99.90
43627;DHT22;29217;52.586;13.442;2022-11-13T07:50:33;10.10;99.90
43627;DHT22;29217;52.586;13.442;2022-11-13T07:53:03;10.10;99.90
43627;DHT22;29217;52.586;13.442;2022-11-13T07:55:30;10.10;99.90
43627;DHT22;29217;52.586;13.442;2022-11-13T07:57:56;10.10;99.90
43627;DHT22;29217;52.586;13.442;2022-11-13T08:00:23;10.10;99.90
43627;DHT22;29217;52.586;13.442;2022-11-13T08:02:49;10.10;99.90
43627;DHT22;29217;52.586;13.442;2022-11-13T08:05:15;10.10;99.90
43627;DHT22;29217;52.586;13.442;2022-11-13T08:07:41;10.20;99.90
43627;DHT22;29217;52.586;13.442;2022-11-13T08:10:07;10.10;99.90
43627;DHT22;29217;52.586;13.442;2022-11-13T08:12:33;10.10;99.90
43627;DHT22;29217;52.586;13.442;2022-11-13T08:14:58;10.20;99.90
43627;DHT22;29217;52.586;13.442;2022-11-13T08:17:24;10.20;99.90
43627;DHT22;29217;52.586;13.442;2022-11-13T08:19:50;10.20;99.90
43627;DHT22;29217;52.586;13.442;2022-11-13T08:22:15;10.20;99.90
43627;DHT22;29217;52.586;13.442;2022-11-13T08:24:41;10.20;99.90
43627;DHT22;29217;52.586;13.442;2022-11-13T08:27:06;10.20;99.90
43627;DHT22;29217;52.586;13.442;2022-11-13T08:29:32;10.20;99.90
43627;DHT22;29217;52.586;13.442;2022-11-13T08:31:57;10.20;99.90
43627;DHT22;29217;52.586;13.442;2022-11-13T08:34:23;10.20;99.90
43627;DHT22;29217;52.586;13.442;2022-11-13T08:36:49;10.20;99.90
43627;DHT22;29217;52.586;13.442;2022-11-13T08:39:14;10.20;99.90
43627;DHT22;29217;52.586;13.442;2022-11-13T08:41:40;10.20;99.90
43627;DHT22;29217;52.586;13.442;2022-11-13T08:44:05;10.20;99.90
43627;DHT22;29217;52.586;13.442;2022-11-13T08:46:31;10.20;99.90
43627;DHT22;29217;52.586;13.442;2022-11-13T08:48:56;10.30;99.90
43627;DHT22;29217;52.586;13.442;2022-11-13T08:51:22;10.30;99.90
43627;DHT22;29217;52.586;13.442;2022-11-13T08:53:48;10.30;99.90
43627;DHT22;29217;52.586;13.442;2022-11-13T08:56:13;10.30;99.90
43627;DHT22;29217;52.586;13.442;2022-11-13T08:58:39;10.30;99.90
43627;DHT22;29217;52.586;13.442;2022-11-13T09:01:04;10.40;99.90
43627;DHT22;29217;52.586;13.442;2022-11-13T09:03:30;10.40;99.90
43627;DHT22;29217;52.586;13.442;2022-11-13T09:05:55;10.40;99.90
43627;DHT22;29217;52.586;13.442;2022-11-13T09:08:21;10.40;99.90
43627;DHT22;29217;52.586;13.442;2022-11-13T09:10:47;10.40;99.90
43627;DHT22;29217;52.586;13.442;2022-11-13T09:13:12;10.30;99.90
43627;DHT22;29217;52.586;13.442;2022-11-13T09:15:38;10.40;99.90
43627;DHT22;29217;52.586;13.442;2022-11-13T09:18:04;10.40;99.90
43627;DHT22;29217;52.586;13.442;2022-11-13T09:20:32;10.30;99.90
43627;DHT22;29217;52.586;13.442;2022-11-13T09:23:00;10.30;99.90
43627;DHT22;29217;52.586;13.442;2022-11-13T09:25:26;10.40;99.90
43627;DHT22;29217;52.586;13.442;2022-11-13T09:27:58;10.40;99.90
43627;DHT22;29217;52.586;13.442;2022-11-13T09:30:24;10.40;99.90
43627;DHT22;29217;52.586;13.442;2022-11-13T09:32:55;10.50;99.90
43627;DHT22;29217;52.586;13.442;2022-11-13T09:35:22;10.40;99.90
43627;DHT22;29217;52.586;13.442;2022-11-13T09:37:59;10.50;99.90
43627;DHT22;29217;52.586;13.442;2022-11-13T09:40:30;10.50;99.90
43627;DHT22;29217;52.586;13.442;2022-11-13T09:42:56;10.50;99.90
43627;DHT22;29217;52.586;13.442;2022-11-13T09:45:23;10.50;99.90
43627;DHT22;29217;52.586;13.442;2022-11-13T09:47:49;10.60;99.90
43627;DHT22;29217;52.586;13.442;2022-11-13T09:52:43;10.60;99.90
43627;DHT22;29217;52.586;13.442;2022-11-13T09:55:16;10.70;99.90
43627;DHT22;29217;52.586;13.442;2022-11-13T09:57:50;10.60;99.90
43627;DHT22;29217;52.586;13.442;2022-11-13T10:00:19;10.70;99.90
43627;DHT22;29217;52.586;13.442;2022-11-13T10:08:24;10.80;99.90
43627;DHT22;29217;52.586;13.442;2022-11-13T10:16:27;10.80;99.90
43627;DHT22;29217;52.586;13.442;2022-11-13T10:18:55;10.80;99.90
43627;DHT22;29217;52.586;13.442;2022-11-13T10:21:30;10.80;99.90
43627;DHT22;29217;52.586;13.442;2022-11-13T10:23:56;10.80;99.90
43627;DHT22;29217;52.586;13.442;2022-11-13T10:26:26;10.80;99.90
43627;DHT22;29217;52.586;13.442;2022-11-13T10:29:11;10.70;99.90
43627;DHT22;29217;52.586;13.442;2022-11-13T10:31:46;10.80;99.90
43627;DHT22;29217;52.586;13.442;2022-11-13T10:34:13;10.80;99.90
43627;DHT22;29217;52.586;13.442;2022-11-13T10:37:12;10.80;99.90
43627;DHT22;29217;52.586;13.442;2022-11-13T10:39:42;10.80;99.90
43627;DHT22;29217;52.586;13.442;2022-11-13T10:42:20;10.80;99.90
43627;DHT22;29217;52.586;13.442;2022-11-13T10:44:56;10.80;99.90
43627;DHT22;29217;52.586;13.442;2022-11-13T10:47:24;10.80;99.90
43627;DHT22;29217;52.586;13.442;2022-11-13T10:49:50;10.90;99.90
43627;DHT22;29217;52.586;13.442;2022-11-13T10:54:47;10.90;99.90
43627;DHT22;29217;52.586;13.442;2022-11-13T10:57:30;10.90;99.90
43627;DHT22;29217;52.586;13.442;2022-11-13T10:59:59;10.80;99.90
43627;DHT22;29217;52.586;13.442;2022-11-13T11:02:26;10.80;99.90
43627;DHT22;29217;52.586;13.442;2022-11-13T11:05:18;10.80;99.90
43627;DHT22;29217;52.586;13.442;2022-11-13T11:07:44;10.90;99.90
43627;DHT22;29217;52.586;13.442;2022-11-13T11:12:55;10.90;99.90
43627;DHT22;29217;52.586;13.442;2022-11-13T11:15:25;10.90;99.90
43627;DHT22;29217;52.586;13.442;2022-11-13T11:17:58;10.90;99.90
43627;DHT22;29217;52.586;13.442;2022-11-13T11:21:06;11.00;99.90
43627;DHT22;29217;52.586;13.442;2022-11-13T11:23:42;11.00;99.90
43627;DHT22;29217;52.586;13.442;2022-11-13T11:26:31;11.00;99.90
43627;DHT22;29217;52.586;13.442;2022-11-13T11:29:11;11.00;99.90
43627;DHT22;29217;52.586;13.442;2022-11-13T11:34:32;11.10;99.90
43627;DHT22;29217;52.586;13.442;2022-11-13T11:39:33;11.00;99.90
43627;DHT22;29217;52.586;13.442;2022-11-13T11:42:21;11.00;99.90
43627;DHT22;29217;52.586;13.442;2022-11-13T11:45:01;11.10;99.90
43627;DHT22;29217;52.586;13.442;2022-11-13T11:47:29;11.10;99.90
43627;DHT22;29217;52.586;13.442;2022-11-13T11:49:55;11.20;99.90
43627;DHT22;29217;52.586;13.442;2022-11-13T11:58:14;11.30;99.90
43627;DHT22;29217;52.586;13.442;2022-11-13T12:00:49;11.30;99.90
43627;DHT22;29217;52.586;13.442;2022-11-13T12:06:37;11.30;99.90
43627;DHT22;29217;52.586;13.442;2022-11-13T12:09:28;11.40;99.90
43627;DHT22;29217;52.586;13.442;2022-11-13T12:12:08;11.40;99.90
43627;DHT22;29217;52.586;13.442;2022-11-13T12:19:59;11.50;99.90
43627;DHT22;29217;52.586;13.442;2022-11-13T12:25:33;11.60;99.90
43627;DHT22;29217;52.586;13.442;2022-11-13T12:36:25;13.10;99.90
43627;DHT22;29217;52.586;13.442;2022-11-13T12:39:03;13.40;99.90
43627;DHT22;29217;52.586;13.442;2022-11-13T12:46:42;13.70;99.90
43627;DHT22;29217;52.586;13.442;2022-11-13T12:49:34;13.80;99.90
43627;DHT22;29217;52.586;13.442;2022-11-13T12:52:21;13.70;99.90
43627;DHT22;29217;52.586;13.442;2022-11-13T12:54:48;13.80;99.90
43627;DHT22;29217;52.586;13.442;2022-11-13T12:59:55;13.90;99.90
43627;DHT22;29217;52.586;13.442;2022-11-13T13:02:37;13.80;99.90
43627;DHT22;29217;52.586;13.442;2022-11-13T13:05:27;13.70;99.90
43627;DHT22;29217;52.586;13.442;2022-11-13T13:13:58;13.70;99.90
43627;DHT22;29217;52.586;13.442;2022-11-13T13:16:29;13.50;99.90
43627;DHT22;29217;52.586;13.442;2022-11-13T13:19:25;13.50;99.90
43627;DHT22;29217;52.586;13.442;2022-11-13T13:21:53;13.50;99.90
43627;DHT22;29217;52.586;13.442;2022-11-13T13:24:38;13.40;99.90
43627;DHT22;29217;52.586;13.442;2022-11-13T13:27:42;13.40;99.90
43627;DHT22;29217;52.586;13.442;2022-11-13T13:30:20;13.30;99.90
43627;DHT22;29217;52.586;13.442;2022-11-13T13:35:22;13.20;99.90
43627;DHT22;29217;52.586;13.442;2022-11-13T13:38:03;13.20;99.90
43627;DHT22;29217;52.586;13.442;2022-11-13T13:40:58;13.10;99.90
43627;DHT22;29217;52.586;13.442;2022-11-13T13:43:53;13.00;99.90
43627;DHT22;29217;52.586;13.442;2022-11-13T13:46:23;12.80;99.90
43627;DHT22;29217;52.586;13.442;2022-11-13T13:48:54;12.80;99.90
43627;DHT22;29217;52.586;13.442;2022-11-13T13:54:06;12.60;99.90
43627;DHT22;29217;52.586;13.442;2022-11-13T13:56:33;12.40;99.90
43627;DHT22;29217;52.586;13.442;2022-11-13T13:59:04;12.20;99.90
43627;DHT22;29217;52.586;13.442;2022-11-13T14:01:32;12.10;99.90
43627;DHT22;29217;52.586;13.442;2022-11-13T14:04:09;12.00;99.90
43627;DHT22;29217;52.586;13.442;2022-11-13T14:06:50;12.00;99.90
43627;DHT22;29217;52.586;13.442;2022-11-13T14:09:21;11.90;99.90
43627;DHT22;29217;52.586;13.442;2022-11-13T14:11:47;11.80;99.90
43627;DHT22;29217;52.586;13.442;2022-11-13T14:14:21;11.70;99.90
43627;DHT22;29217;52.586;13.442;2022-11-13T14:16:52;11.60;99.90
43627;DHT22;29217;52.586;13.442;2022-11-13T14:19:19;11.50;99.90
43627;DHT22;29217;52.586;13.442;2022-11-13T14:21:46;11.50;99.90
43627;DHT22;29217;52.586;13.442;2022-11-13T14:24:20;11.40;99.90
43627;DHT22;29217;52.586;13.442;2022-11-13T14:26:48;11.30;99.90
43627;DHT22;29217;52.586;13.442;2022-11-13T14:29:39;11.20;99.90
43627;DHT22;29217;52.586;13.442;2022-11-13T14:32:20;11.20;99.90
43627;DHT22;29217;52.586;13.442;2022-11-13T14:34:52;11.20;99.90
43627;DHT22;29217;52.586;13.442;2022-11-13T14:37:34;11.10;99.90
43627;DHT22;29217;52.586;13.442;2022-11-13T14:42:47;10.90;99.90
43627;DHT22;29217;52.586;13.442;2022-11-13T14:45:16;10.80;99.90
43627;DHT22;29217;52.586;13.442;2022-11-13T14:47:43;10.80;99.90
43627;DHT22;29217;52.586;13.442;2022-11-13T14:50:26;10.70;99.90
43627;DHT22;29217;52.586;13.442;2022-11-13T14:53:02;10.60;99.90
43627;DHT22;29217;52.586;13.442;2022-11-13T14:55:35;10.50;99.90
43627;DHT22;29217;52.586;13.442;2022-11-13T14:58:01;10.50;99.90
43627;DHT22;29217;52.586;13.442;2022-11-13T15:00:33;10.30;99.90
43627;DHT22;29217;52.586;13.442;2022-11-13T15:02:59;10.40;99.90
43627;DHT22;29217;52.586;13.442;2022-11-13T15:05:25;10.30;99.90
43627;DHT22;29217;52.586;13.442;2022-11-13T15:07:53;10.20;99.90
43627;DHT22;29217;52.586;13.442;2022-11-13T15:10:25;10.20;99.90
43627;DHT22;29217;52.586;13.442;2022-11-13T15:12:51;10.10;99.90
43627;DHT22;29217;52.586;13.442;2022-11-13T15:15:22;10.00;99.90
43627;DHT22;29217;52.586;13.442;2022-11-13T15:17:50;10.00;99.90
43627;DHT22;29217;52.586;13.442;2022-11-13T15:22:43;9.90;99.90
43627;DHT22;29217;52.586;13.442;2022-11-13T15:25:16;9.80;99.90
43627;DHT22;29217;52.586;13.442;2022-11-13T15:27:42;9.70;99.90
43627;DHT22;29217;52.586;13.442;2022-11-13T15:30:09;9.70;99.90
43627;DHT22;29217;52.586;13.442;2022-11-13T15:32:35;9.60;99.90
43627;DHT22;29217;52.586;13.442;2022-11-13T15:35:00;9.60;99.90
43627;DHT22;29217;52.586;13.442;2022-11-13T15:37:26;9.60;99.90
43627;DHT22;29217;52.586;13.442;2022-11-13T15:39:51;9.50;99.90
43627;DHT22;29217;52.586;13.442;2022-11-13T15:42:30;9.40;99.90
43627;DHT22;29217;52.586;13.442;2022-11-13T15:44:56;9.40;99.90
43627;DHT22;29217;52.586;13.442;2022-11-13T15:47:34;9.30;99.90
43627;DHT22;29217;52.586;13.442;2022-11-13T15:50:02;9.30;99.90
43627;DHT22;29217;52.586;13.442;2022-11-13T15:52:40;9.20;99.90
43627;DHT22;29217;52.586;13.442;2022-11-13T15:57:45;9.10;99.90
43627;DHT22;29217;52.586;13.442;2022-11-13T16:00:18;9.10;99.90
43627;DHT22;29217;52.586;13.442;2022-11-13T16:02:45;9.00;99.90
43627;DHT22;29217;52.586;13.442;2022-11-13T16:05:14;9.00;99.90
43627;DHT22;29217;52.586;13.442;2022-11-13T16:07:40;8.90;99.90
43627;DHT22;29217;52.586;13.442;2022-11-13T16:10:08;8.90;99.90
43627;DHT22;29217;52.586;13.442;2022-11-13T16:12:35;8.90;99.90
43627;DHT22;29217;52.586;13.442;2022-11-13T16:15:00;8.90;99.90
43627;DHT22;29217;52.586;13.442;2022-11-13T16:17:26;8.80;99.90
43627;DHT22;29217;52.586;13.442;2022-11-13T16:19:53;8.80;99.90
43627;DHT22;29217;52.586;13.442;2022-11-13T16:24:45;8.70;99.90
43627;DHT22;29217;52.586;13.442;2022-11-13T16:27:29;8.70;99.90
43627;DHT22;29217;52.586;13.442;2022-11-13T16:29:55;8.70;99.90
43627;DHT22;29217;52.586;13.442;2022-11-13T16:32:21;8.60;99.90
43627;DHT22;29217;52.586;13.442;2022-11-13T16:34:47;8.60;99.90
43627;DHT22;29217;52.586;13.442;2022-11-13T16:37:21;8.50;99.90
43627;DHT22;29217;52.586;13.442;2022-11-13T16:39:47;8.50;99.90
43627;DHT22;29217;52.586;13.442;2022-11-13T16:42:14;8.50;99.90
43627;DHT22;29217;52.586;13.442;2022-11-13T16:44:40;8.40;99.90
43627;DHT22;29217;52.586;13.442;2022-11-13T16:47:16;8.40;99.90
43627;DHT22;29217;52.586;13.442;2022-11-13T16:49:44;8.30;99.90
43627;DHT22;29217;52.586;13.442;2022-11-13T16:52:09;8.30;99.90
43627;DHT22;29217;52.586;13.442;2022-11-13T16:54:35;8.30;99.90
43627;DHT22;29217;52.586;13.442;2022-11-13T16:57:00;8.30;99.90